createdAt,value
2022-12-16T00:00:29.849Z,39.72
2022-12-16T00:02:58.488Z,38.40
2022-12-16T00:05:24.881Z,38.75
2022-12-16T00:07:51.319Z,41.85
2022-12-16T00:10:18.164Z,42.42
2022-12-16T00:12:44.513Z,38.53
2022-12-16T00:15:11.154Z,35.75
2022-12-16T00:17:37.633Z,36.20
2022-12-16T00:20:04.324Z,35.85
2022-12-16T00:22:30.785Z,40.30
2022-12-16T00:24:57.179Z,34.28
2022-12-16T00:27:23.504Z,34.25
2022-12-16T00:29:49.871Z,36.83
2022-12-16T00:32:16.273Z,37.40
2022-12-16T00:34:42.710Z,39.75
2022-12-16T00:37:11.018Z,40.08
2022-12-16T00:39:37.441Z,34.22
2022-12-16T00:42:03.827Z,38.97
2022-12-16T00:44:30.161Z,40.20
2022-12-16T00:46:56.526Z,43.97
2022-12-16T00:49:22.908Z,44.53
2022-12-16T00:51:49.582Z,45.97
2022-12-16T00:54:16.984Z,55.22
2022-12-16T00:56:43.313Z,55.47
2022-12-16T00:59:09.680Z,59.13
2022-12-16T01:01:36.466Z,59.65
2022-12-16T01:04:03.029Z,58.33
2022-12-16T01:06:29.363Z,59.67
2022-12-16T01:08:55.691Z,50.53
2022-12-16T01:11:22.119Z,48.45
2022-12-16T01:13:52.183Z,46.38
2022-12-16T01:16:18.954Z,42.15
2022-12-16T01:18:45.453Z,41.10
2022-12-16T01:21:13.286Z,37.40
2022-12-16T01:23:39.665Z,38.58
2022-12-16T01:26:06.280Z,39.88
2022-12-16T01:28:32.757Z,38.83
2022-12-16T01:31:01.698Z,39.63
2022-12-16T01:33:30.013Z,38.03
2022-12-16T01:36:04.613Z,38.63
2022-12-16T01:40:57.760Z,39.47
2022-12-16T01:43:25.830Z,41.13
2022-12-16T01:45:53.273Z,37.30
2022-12-16T01:48:34.149Z,40.58
2022-12-16T01:51:03.303Z,38.45
2022-12-16T01:53:30.595Z,38.75
2022-12-16T01:55:58.128Z,38.63
2022-12-16T01:58:27.508Z,33.78
2022-12-16T02:00:54.609Z,42.65
2022-12-16T02:03:21.622Z,39.70
2022-12-16T02:05:48.355Z,38.75
2022-12-16T02:08:15.853Z,37.13
2022-12-16T02:10:42.185Z,40.13
2022-12-16T02:13:14.762Z,38.72
2022-12-16T02:16:05.882Z,35.25
2022-12-16T02:18:33.331Z,36.47
2022-12-16T02:21:08.073Z,36.67
2022-12-16T02:23:40.630Z,33.28
2022-12-16T02:26:10.117Z,40.17
2022-12-16T02:28:42.702Z,36.60
2022-12-16T02:31:22.459Z,33.88
2022-12-16T02:34:10.346Z,38.17
2022-12-16T02:36:36.719Z,34.53
2022-12-16T02:39:32.343Z,38.92
2022-12-16T02:42:10.987Z,31.77
2022-12-16T02:44:57.655Z,39.25
2022-12-16T02:47:24.711Z,34.05
2022-12-16T02:49:51.919Z,33.13
2022-12-16T02:52:22.863Z,31.52
2022-12-16T02:54:50.519Z,30.92
2022-12-16T02:57:16.911Z,32.13
2022-12-16T02:59:58.762Z,31.58
2022-12-16T03:02:29.036Z,34.22
2022-12-16T03:04:59.936Z,34.17
2022-12-16T03:07:27.065Z,34.95
2022-12-16T03:09:53.768Z,33.92
2022-12-16T03:12:22.026Z,32.78
2022-12-16T03:14:50.082Z,37.42
2022-12-16T03:17:16.986Z,37.85
2022-12-16T03:19:46.173Z,34.85
2022-12-16T03:22:14.532Z,38.85
2022-12-16T03:24:41.056Z,33.65
2022-12-16T03:27:13.631Z,34.00
2022-12-16T03:29:58.761Z,40.25
2022-12-16T03:32:33.565Z,35.20
2022-12-16T03:35:02.375Z,31.55
2022-12-16T03:37:31.619Z,30.45
2022-12-16T03:39:59.077Z,37.15
2022-12-16T03:42:25.819Z,38.53
2022-12-16T03:44:52.302Z,33.10
2022-12-16T03:47:23.731Z,32.83
2022-12-16T03:49:50.634Z,33.72
2022-12-16T03:52:17.236Z,31.67
2022-12-16T03:54:43.587Z,35.80
2022-12-16T03:57:15.001Z,31.13
2022-12-16T03:59:41.941Z,36.65
2022-12-16T04:02:08.417Z,32.00
2022-12-16T04:04:34.929Z,31.77
2022-12-16T04:07:20.208Z,35.28
2022-12-16T04:09:46.990Z,33.30
2022-12-16T04:12:32.130Z,31.85
2022-12-16T04:15:17.274Z,37.25
2022-12-16T04:18:02.181Z,32.67
2022-12-16T04:20:48.574Z,31.45
2022-12-16T04:23:33.931Z,31.75
2022-12-16T04:26:00.606Z,29.95
2022-12-16T04:28:26.963Z,33.00
2022-12-16T04:30:53.605Z,30.40
2022-12-16T04:33:40.543Z,30.73
2022-12-16T04:36:26.130Z,27.45
2022-12-16T04:39:10.935Z,30.60
2022-12-16T04:41:55.928Z,31.20
2022-12-16T04:44:41.179Z,27.70
2022-12-16T04:47:26.300Z,27.67
2022-12-16T04:50:10.981Z,31.55
2022-12-16T04:55:41.113Z,27.20
2022-12-16T04:58:25.951Z,27.60
2022-12-16T05:04:15.479Z,29.25
2022-12-16T05:07:00.408Z,27.85
2022-12-16T05:09:45.387Z,31.27
2022-12-16T05:12:30.182Z,31.10
2022-12-16T05:15:15.204Z,25.73
2022-12-16T05:17:59.989Z,30.52
2022-12-16T05:20:45.256Z,28.98
2022-12-16T05:23:30.443Z,30.88
2022-12-16T05:26:15.892Z,28.52
2022-12-16T05:29:00.727Z,32.22
2022-12-16T05:31:45.592Z,26.45
2022-12-16T05:34:30.819Z,26.58
2022-12-16T05:37:15.675Z,33.60
2022-12-16T05:40:00.531Z,24.38
2022-12-16T05:42:45.245Z,28.25
2022-12-16T05:48:15.036Z,31.02
2022-12-16T05:51:00.228Z,23.40
2022-12-16T05:53:45.067Z,25.40
2022-12-16T05:56:29.851Z,24.52
2022-12-16T05:59:14.725Z,25.90
2022-12-16T06:01:59.861Z,27.70
2022-12-16T06:04:45.110Z,27.42
2022-12-16T06:07:29.918Z,26.30
2022-12-16T06:10:14.803Z,28.55
2022-12-16T06:12:59.755Z,28.75
2022-12-16T06:15:44.625Z,29.40
2022-12-16T06:18:29.284Z,27.27
2022-12-16T06:24:19.175Z,30.40
2022-12-16T06:27:03.956Z,24.40
2022-12-16T06:29:48.840Z,25.88
2022-12-16T06:32:33.687Z,29.52
2022-12-16T06:35:26.063Z,25.45
2022-12-16T06:38:10.980Z,23.98
2022-12-16T06:40:56.189Z,22.95
2022-12-16T06:43:41.005Z,22.58
2022-12-16T06:46:26.029Z,20.33
2022-12-16T06:49:11.202Z,18.38
2022-12-16T06:51:56.126Z,18.88
2022-12-16T06:54:40.993Z,21.45
2022-12-16T06:57:25.842Z,21.38
2022-12-16T07:00:10.766Z,21.63
2022-12-16T07:02:55.699Z,24.45
2022-12-16T07:05:40.888Z,23.27
2022-12-16T07:08:25.668Z,22.08
2022-12-16T07:11:16.603Z,25.13
2022-12-16T07:14:02.383Z,21.60
2022-12-16T07:16:47.536Z,25.77
2022-12-16T07:19:32.819Z,25.38
2022-12-16T07:22:17.854Z,23.73
2022-12-16T07:25:03.088Z,29.27
2022-12-16T07:27:48.195Z,24.80
2022-12-16T07:30:33.053Z,26.35
2022-12-16T07:33:18.098Z,23.98
2022-12-16T07:36:03.205Z,24.55
2022-12-16T07:38:48.124Z,18.90
2022-12-16T07:41:32.943Z,20.05
2022-12-16T07:44:17.810Z,20.75
2022-12-16T07:47:02.692Z,24.60
2022-12-16T07:49:55.453Z,22.45
2022-12-16T07:52:41.097Z,22.25
2022-12-16T07:55:26.507Z,22.25
2022-12-16T07:58:11.549Z,22.73
2022-12-16T08:00:56.531Z,22.30
2022-12-16T08:03:41.652Z,21.52
2022-12-16T08:06:26.942Z,21.67
2022-12-16T08:09:12.234Z,25.98
2022-12-16T08:11:56.968Z,24.05
2022-12-16T08:14:42.145Z,22.50
2022-12-16T08:17:26.999Z,21.45
2022-12-16T08:20:11.851Z,21.25
2022-12-16T08:22:58.127Z,20.50
2022-12-16T08:25:43.031Z,21.80
2022-12-16T08:28:27.977Z,22.92
2022-12-16T08:31:12.964Z,21.73
2022-12-16T08:33:57.947Z,21.58
2022-12-16T08:36:42.800Z,22.63
2022-12-16T08:39:27.633Z,20.40
2022-12-16T08:42:12.815Z,19.27
2022-12-16T08:44:57.799Z,18.27
2022-12-16T08:47:42.709Z,16.90
2022-12-16T08:50:27.576Z,18.75
2022-12-16T08:53:12.542Z,20.95
2022-12-16T08:55:57.517Z,20.40
2022-12-16T08:58:42.537Z,21.38
2022-12-16T09:01:27.393Z,24.33
2022-12-16T09:04:12.729Z,19.23
2022-12-16T09:06:58.065Z,25.00
2022-12-16T09:09:43.335Z,24.50
2022-12-16T09:12:28.320Z,17.90
2022-12-16T09:15:13.299Z,22.10
2022-12-16T09:17:58.692Z,21.73
2022-12-16T09:20:43.698Z,23.42
2022-12-16T09:23:28.734Z,23.45
2022-12-16T09:26:13.918Z,23.83
2022-12-16T09:28:59.234Z,21.77
2022-12-16T09:31:44.159Z,23.75
2022-12-16T09:34:28.972Z,23.63
2022-12-16T09:37:13.900Z,20.45
2022-12-16T09:39:58.697Z,21.10
2022-12-16T09:43:02.661Z,19.75
2022-12-16T09:46:06.496Z,19.83
2022-12-16T09:49:06.283Z,20.45
2022-12-16T09:51:52.273Z,20.25
2022-12-16T09:54:38.838Z,23.48
2022-12-16T09:57:24.114Z,23.20
2022-12-16T10:00:17.840Z,21.33
2022-12-16T10:03:06.912Z,22.42
2022-12-16T10:05:57.727Z,22.90
2022-12-16T10:09:05.151Z,23.25
2022-12-16T10:12:08.964Z,21.27
2022-12-16T10:15:04.525Z,17.33
2022-12-16T10:17:49.830Z,20.40
2022-12-16T10:20:51.335Z,20.48
2022-12-16T10:23:40.300Z,19.35
2022-12-16T10:26:35.762Z,25.98
2022-12-16T10:29:40.328Z,20.63
2022-12-16T10:32:38.658Z,19.70
2022-12-16T10:35:35.716Z,20.90
2022-12-16T10:38:20.688Z,22.35
2022-12-16T10:41:05.772Z,26.75
2022-12-16T10:43:56.144Z,20.25
2022-12-16T10:46:43.599Z,19.67
2022-12-16T10:49:33.389Z,18.55
2022-12-16T10:52:18.628Z,15.98
2022-12-16T10:55:23.648Z,22.60
2022-12-16T10:58:34.243Z,18.13
2022-12-16T11:01:38.326Z,13.77
2022-12-16T11:04:46.032Z,14.40
2022-12-16T11:07:50.024Z,14.50
2022-12-16T11:10:47.570Z,13.38
2022-12-16T11:13:40.087Z,14.77
2022-12-16T11:16:26.659Z,14.98
2022-12-16T11:19:11.960Z,14.55
2022-12-16T11:21:56.847Z,15.05
2022-12-16T11:24:41.715Z,15.60
2022-12-16T11:27:34.158Z,14.10
2022-12-16T11:30:19.042Z,14.23
2022-12-16T11:33:09.002Z,15.32
2022-12-16T11:35:56.498Z,14.45
2022-12-16T11:38:44.267Z,13.65
2022-12-16T11:41:42.288Z,13.80
2022-12-16T11:44:32.305Z,11.68
2022-12-16T11:47:17.375Z,12.80
2022-12-16T11:50:02.414Z,11.07
2022-12-16T11:52:47.596Z,13.50
2022-12-16T11:56:04.151Z,11.43
2022-12-16T11:59:00.864Z,11.73
2022-12-16T12:07:16.905Z,8.23
2022-12-16T12:10:08.731Z,11.90
2022-12-16T12:12:58.805Z,12.80
2022-12-16T12:15:48.208Z,9.15
2022-12-16T12:18:42.639Z,11.90
2022-12-16T12:21:43.686Z,11.50
2022-12-16T12:24:31.751Z,8.93
2022-12-16T12:27:43.246Z,10.65
2022-12-16T12:30:46.817Z,7.80
2022-12-16T12:33:46.958Z,6.85
2022-12-16T12:36:38.221Z,9.40
2022-12-16T12:39:33.058Z,7.18
2022-12-16T12:42:33.564Z,8.45
2022-12-16T12:45:34.041Z,6.28
2022-12-16T12:48:39.440Z,6.63
2022-12-16T12:51:36.497Z,4.72
2022-12-16T12:54:33.679Z,6.43
2022-12-16T12:57:19.790Z,4.95
2022-12-16T13:00:04.703Z,6.35
2022-12-16T13:02:55.257Z,6.88
2022-12-16T13:05:40.689Z,4.45
2022-12-16T13:08:44.917Z,5.93
2022-12-16T13:11:35.306Z,5.70
2022-12-16T13:14:20.726Z,8.45
2022-12-16T13:17:05.953Z,5.07
2022-12-16T13:19:51.180Z,6.70
2022-12-16T13:22:46.660Z,6.72
2022-12-16T13:25:51.372Z,6.75
2022-12-16T13:28:43.815Z,7.53
2022-12-16T13:31:28.942Z,6.75
2022-12-16T13:34:15.949Z,5.57
2022-12-16T13:37:03.044Z,7.22
2022-12-16T13:39:48.659Z,4.95
2022-12-16T13:42:53.650Z,54.78
2022-12-16T13:45:47.656Z,10.18
2022-12-16T13:48:46.548Z,5.05
2022-12-16T13:51:50.703Z,6.53
2022-12-16T13:54:35.534Z,7.72
2022-12-16T13:57:21.690Z,4.90
2022-12-16T14:00:06.593Z,6.00
2022-12-16T14:02:58.649Z,6.47
2022-12-16T14:05:47.851Z,5.97
2022-12-16T14:08:35.105Z,7.75
2022-12-16T14:11:21.504Z,5.88
2022-12-16T14:14:19.129Z,6.45
2022-12-16T14:17:11.751Z,6.10
2022-12-16T14:20:16.559Z,7.70
2022-12-16T14:23:06.985Z,6.00
2022-12-16T14:25:52.795Z,7.43
2022-12-16T14:28:40.847Z,5.63
2022-12-16T14:31:34.565Z,5.93
2022-12-16T14:34:22.846Z,5.68
2022-12-16T14:37:07.708Z,7.80
2022-12-16T14:39:57.657Z,4.93
2022-12-16T14:42:49.587Z,5.60
2022-12-16T14:45:45.178Z,6.78
2022-12-16T14:48:43.138Z,8.68
2022-12-16T14:51:36.003Z,9.38
2022-12-16T14:54:33.472Z,6.28
2022-12-16T14:57:18.650Z,8.43
2022-12-16T15:00:03.385Z,6.22
2022-12-16T15:02:51.330Z,8.73
2022-12-16T15:05:37.550Z,5.80
2022-12-16T15:08:23.783Z,4.93
2022-12-16T15:11:09.162Z,7.15
2022-12-16T15:14:03.417Z,9.95
2022-12-16T15:19:37.207Z,7.07
2022-12-16T15:22:22.064Z,7.90
2022-12-16T15:25:06.874Z,7.03
2022-12-16T15:27:55.766Z,16.00
2022-12-16T15:30:53.022Z,7.60
2022-12-16T15:33:39.253Z,8.65
2022-12-16T15:36:24.621Z,10.80
2022-12-16T15:39:09.475Z,9.52
2022-12-16T15:41:55.802Z,7.20
2022-12-16T15:44:45.966Z,8.57
2022-12-16T15:47:49.670Z,8.88
2022-12-16T15:50:34.901Z,9.80
2022-12-16T15:53:38.875Z,10.93
2022-12-16T15:56:23.830Z,10.30
2022-12-16T15:59:08.897Z,9.60
2022-12-16T16:02:04.577Z,8.80
2022-12-16T16:04:50.315Z,14.15
2022-12-16T16:07:35.335Z,10.80
2022-12-16T16:10:38.467Z,13.70
2022-12-16T16:13:23.945Z,10.02
2022-12-16T16:16:09.480Z,12.60
2022-12-16T16:18:55.001Z,13.45
2022-12-16T16:21:40.794Z,15.93
2022-12-16T16:24:26.036Z,16.38
2022-12-16T16:27:11.876Z,14.38
2022-12-16T16:29:56.953Z,14.30
2022-12-16T16:32:41.803Z,15.40
2022-12-16T16:35:26.971Z,18.83
2022-12-16T16:38:15.441Z,22.63
2022-12-16T16:41:03.683Z,19.67
2022-12-16T16:43:49.289Z,24.73
2022-12-16T16:46:46.801Z,16.15
2022-12-16T16:49:37.277Z,19.52
2022-12-16T16:52:22.147Z,14.50
2022-12-16T16:55:07.265Z,13.90
2022-12-16T16:57:53.843Z,15.20
2022-12-16T17:00:38.936Z,14.32
2022-12-16T17:03:24.126Z,14.18
2022-12-16T17:06:09.354Z,17.92
2022-12-16T17:08:54.143Z,16.60
2022-12-16T17:11:40.119Z,20.67
2022-12-16T17:14:28.459Z,18.67
2022-12-16T17:17:13.559Z,16.27
2022-12-16T17:19:58.935Z,29.83
2022-12-16T17:22:43.936Z,26.00
2022-12-16T17:25:29.072Z,19.75
2022-12-16T17:28:13.966Z,21.70
2022-12-16T17:31:12.731Z,21.92
2022-12-16T17:33:57.694Z,16.52
2022-12-16T17:36:42.725Z,15.75
2022-12-16T17:39:28.191Z,16.02
2022-12-16T17:42:12.945Z,14.73
2022-12-16T17:44:58.321Z,18.83
2022-12-16T17:47:43.559Z,14.73
2022-12-16T17:50:28.629Z,14.38
2022-12-16T17:53:16.705Z,13.07
2022-12-16T17:56:01.764Z,13.68
2022-12-16T17:58:50.853Z,17.42
2022-12-16T18:01:36.283Z,13.82
2022-12-16T18:04:21.328Z,18.50
2022-12-16T18:07:06.630Z,14.10
2022-12-16T18:09:51.425Z,16.02
2022-12-16T18:12:36.415Z,23.27
2022-12-16T18:15:21.411Z,38.53
2022-12-16T18:18:07.553Z,44.38
2022-12-16T18:20:53.022Z,38.95
2022-12-16T18:23:38.057Z,37.30
2022-12-16T18:26:24.581Z,32.45
2022-12-16T18:29:09.977Z,33.63
2022-12-16T18:31:55.440Z,23.63
2022-12-16T18:34:40.531Z,24.73
2022-12-16T18:37:25.334Z,18.40
2022-12-16T18:40:10.495Z,24.25
2022-12-16T18:42:55.493Z,24.38
2022-12-16T18:45:41.858Z,22.88
2022-12-16T18:48:26.962Z,19.30
2022-12-16T18:51:15.920Z,17.45
2022-12-16T18:54:00.844Z,15.63
2022-12-16T18:56:45.623Z,19.42
2022-12-16T18:59:30.611Z,17.48
2022-12-16T19:02:15.911Z,16.80
2022-12-16T19:05:01.017Z,15.57
2022-12-16T19:07:46.002Z,28.65
2022-12-16T19:10:30.849Z,32.97
2022-12-16T19:13:18.910Z,29.38
2022-12-16T19:16:15.909Z,19.92
2022-12-16T19:19:01.138Z,14.70
2022-12-16T19:21:51.545Z,16.13
2022-12-16T19:24:37.498Z,17.35
2022-12-16T19:27:22.423Z,18.27
2022-12-16T19:30:07.751Z,23.83
2022-12-16T19:32:52.856Z,25.67
2022-12-16T19:35:38.694Z,18.77
2022-12-16T19:38:23.977Z,20.48
2022-12-16T19:41:12.741Z,23.23
2022-12-16T19:44:05.184Z,16.83
2022-12-16T19:46:51.653Z,18.05
2022-12-16T19:49:40.781Z,22.40
2022-12-16T19:52:29.320Z,22.08
2022-12-16T19:55:17.200Z,25.67
2022-12-16T19:58:03.071Z,19.48
2022-12-16T20:00:48.115Z,19.70
2022-12-16T20:03:37.005Z,20.50
2022-12-16T20:06:23.250Z,15.85
2022-12-16T20:09:11.826Z,15.88
2022-12-16T20:11:56.864Z,13.15
2022-12-16T20:14:42.176Z,17.00
2022-12-16T20:17:27.735Z,19.85
2022-12-16T20:20:13.367Z,16.42
2022-12-16T20:22:58.245Z,20.80
2022-12-16T20:25:43.375Z,19.25
2022-12-16T20:28:28.543Z,16.85
2022-12-16T20:31:13.495Z,10.95
2022-12-16T20:34:02.892Z,13.48
2022-12-16T20:36:48.269Z,13.63
2022-12-16T20:39:33.083Z,14.25
2022-12-16T20:42:18.035Z,18.23
2022-12-16T20:45:02.994Z,17.02
2022-12-16T20:47:47.888Z,14.45
2022-12-16T20:50:32.728Z,15.63
2022-12-16T20:53:17.854Z,14.52
2022-12-16T20:56:02.964Z,22.08
2022-12-16T20:58:47.876Z,10.75
2022-12-16T21:01:33.091Z,16.45
2022-12-16T21:04:18.087Z,11.95
2022-12-16T21:07:03.395Z,14.85
2022-12-16T21:09:48.566Z,24.08
2022-12-16T21:12:33.601Z,20.50
2022-12-16T21:15:18.811Z,19.13
2022-12-16T21:18:03.817Z,17.50
2022-12-16T21:20:49.060Z,16.98
2022-12-16T21:23:33.950Z,17.58
2022-12-16T21:26:19.057Z,23.77
2022-12-16T21:29:05.148Z,27.40
2022-12-16T21:31:50.232Z,26.35
2022-12-16T21:34:35.204Z,24.52
2022-12-16T21:37:20.135Z,17.58
2022-12-16T21:40:05.371Z,19.38
2022-12-16T21:42:50.756Z,21.13
2022-12-16T21:45:36.625Z,17.10
2022-12-16T21:48:21.517Z,15.88
2022-12-16T21:51:12.613Z,14.98
2022-12-16T21:53:58.682Z,19.17
2022-12-16T21:56:46.218Z,14.77
2022-12-16T21:59:31.148Z,18.40
2022-12-16T22:02:16.177Z,23.60
2022-12-16T22:05:01.198Z,23.15
2022-12-16T22:07:56.110Z,19.73
2022-12-16T22:13:26.296Z,22.55
2022-12-16T22:16:17.244Z,17.00
2022-12-16T22:19:02.280Z,19.88
2022-12-16T22:21:47.192Z,20.63
2022-12-16T22:24:32.026Z,15.10
2022-12-16T22:27:16.988Z,11.77
2022-12-16T22:30:02.044Z,10.10
2022-12-16T22:32:47.224Z,13.48
2022-12-16T22:35:32.608Z,14.52
2022-12-16T22:38:17.684Z,17.30
2022-12-16T22:41:02.704Z,11.52
2022-12-16T22:43:51.819Z,15.30
2022-12-16T22:46:37.227Z,16.58
2022-12-16T22:49:22.588Z,23.15
2022-12-16T22:52:07.465Z,23.50
2022-12-16T22:54:53.226Z,17.88
2022-12-16T22:57:38.289Z,17.73
2022-12-16T23:00:24.194Z,14.15
2022-12-16T23:03:09.838Z,19.85
2022-12-16T23:05:55.054Z,22.45
2022-12-16T23:08:40.188Z,16.40
2022-12-16T23:11:25.306Z,17.02
2022-12-16T23:14:10.302Z,15.15
2022-12-16T23:16:55.206Z,15.80
2022-12-16T23:19:41.446Z,14.40
2022-12-16T23:22:26.806Z,16.90
2022-12-16T23:25:11.738Z,17.23
2022-12-16T23:27:56.752Z,24.42
2022-12-16T23:30:58.868Z,23.75
2022-12-16T23:33:43.919Z,17.63
2022-12-16T23:36:29.133Z,17.17
2022-12-16T23:39:13.884Z,19.45
2022-12-16T23:41:58.755Z,15.45
2022-12-16T23:44:57.668Z,16.38
2022-12-16T23:47:42.666Z,23.88
2022-12-16T23:50:27.509Z,21.05
2022-12-16T23:53:25.838Z,21.25
2022-12-16T23:56:18.318Z,20.13
2022-12-16T23:59:03.664Z,20.45
